Terminal Aerodrome Forecast
Issued by NWS

Home | Current Version | Previous Version | Text Only | Print | Product List | Glossary On
Versions: 1 2 3 4 5 6 7 8 9 10 11 12 13 14 15
000
FTUS45 KRIW 252300
TAFWRL
TAF
KWRL 252333Z 2600/2624 03006KT P6SM VCSH FEW030 BKN060
     FM260300 13007KT P6SM SCT060
     FM260700 14005KT P6SM VCFG SCT004 SCT060
     FM261800 VRB06KT P6SM VCSH SCT035 BKN070=

USA.gov is the U.S. government's official web portal to all federal, state and local government web resources and services.